sensor_id;sensor_type;location;lat;lon;timestamp;pressure;altitude;pressure_sealevel;temperature;humidity
74635;BME280;63140;56.306;43.984;2022-09-09T00:01:35;99612.31;;;7.82;78.26
74635;BME280;63140;56.306;43.984;2022-09-09T00:04:13;99616.50;;;7.83;78.08
74635;BME280;63140;56.306;43.984;2022-09-09T00:09:34;99611.59;;;7.85;78.31
74635;BME280;63140;56.306;43.984;2022-09-09T00:12:28;99625.53;;;7.82;78.20
74635;BME280;63140;56.306;43.984;2022-09-09T00:15:04;99620.59;;;7.77;77.86
74635;BME280;63140;56.306;43.984;2022-09-09T00:17:38;99625.78;;;7.70;77.67
74635;BME280;63140;56.306;43.984;2022-09-09T00:20:21;99635.47;;;7.59;77.99
74635;BME280;63140;56.306;43.984;2022-09-09T00:22:59;99629.22;;;7.44;78.65
74635;BME280;63140;56.306;43.984;2022-09-09T00:25:31;99631.50;;;7.46;78.51
74635;BME280;63140;56.306;43.984;2022-09-09T00:28:00;99635.22;;;7.41;78.55
74635;BME280;63140;56.306;43.984;2022-09-09T00:30:29;99639.06;;;7.47;78.77
74635;BME280;63140;56.306;43.984;2022-09-09T00:33:10;99633.81;;;7.51;79.11
74635;BME280;63140;56.306;43.984;2022-09-09T00:35:40;99636.06;;;7.49;78.68
74635;BME280;63140;56.306;43.984;2022-09-09T00:38:14;99645.53;;;7.50;78.90
74635;BME280;63140;56.306;43.984;2022-09-09T00:40:52;99638.72;;;7.49;78.43
74635;BME280;63140;56.306;43.984;2022-09-09T00:43:21;99633.44;;;7.49;78.44
74635;BME280;63140;56.306;43.984;2022-09-09T00:46:25;99637.53;;;7.46;78.62
74635;BME280;63140;56.306;43.984;2022-09-09T00:49:09;99649.69;;;7.51;78.52
74635;BME280;63140;56.306;43.984;2022-09-09T00:55:02;99650.50;;;7.55;78.34
74635;BME280;63140;56.306;43.984;2022-09-09T00:57:31;99653.50;;;7.53;78.34
74635;BME280;63140;56.306;43.984;2022-09-09T01:03:07;99647.03;;;7.51;78.01
74635;BME280;63140;56.306;43.984;2022-09-09T01:08:33;99653.25;;;7.35;77.75
74635;BME280;63140;56.306;43.984;2022-09-09T01:11:02;99665.22;;;7.29;78.00
74635;BME280;63140;56.306;43.984;2022-09-09T01:13:31;99653.16;;;7.28;78.26
74635;BME280;63140;56.306;43.984;2022-09-09T01:16:04;99666.78;;;7.30;78.40
74635;BME280;63140;56.306;43.984;2022-09-09T01:18:43;99666.72;;;7.27;78.21
74635;BME280;63140;56.306;43.984;2022-09-09T01:28:49;99670.50;;;7.29;78.15
74635;BME280;63140;56.306;43.984;2022-09-09T01:31:23;99670.50;;;7.29;78.36
74635;BME280;63140;56.306;43.984;2022-09-09T01:33:52;99674.22;;;7.25;78.60
74635;BME280;63140;56.306;43.984;2022-09-09T01:36:29;99677.25;;;7.23;78.15
74635;BME280;63140;56.306;43.984;2022-09-09T01:38:59;99686.25;;;7.22;78.63
74635;BME280;63140;56.306;43.984;2022-09-09T01:41:26;99674.88;;;7.18;78.28
74635;BME280;63140;56.306;43.984;2022-09-09T01:44:05;99680.22;;;7.22;78.71
74635;BME280;63140;56.306;43.984;2022-09-09T01:46:34;99678.38;;;7.26;78.46
74635;BME280;63140;56.306;43.984;2022-09-09T01:49:03;99693.91;;;7.27;78.15
74635;BME280;63140;56.306;43.984;2022-09-09T01:51:30;99686.03;;;7.31;78.35
74635;BME280;63140;56.306;43.984;2022-09-09T01:54:01;99696.97;;;7.33;78.27
74635;BME280;63140;56.306;43.984;2022-09-09T02:02:00;99693.19;;;7.30;78.13
74635;BME280;63140;56.306;43.984;2022-09-09T02:04:44;99700.00;;;7.31;78.23
74635;BME280;63140;56.306;43.984;2022-09-09T02:09:50;99707.38;;;7.22;78.10
74635;BME280;63140;56.306;43.984;2022-09-09T02:12:19;99702.81;;;7.19;78.24
74635;BME280;63140;56.306;43.984;2022-09-09T02:14:56;99706.56;;;7.18;78.00
74635;BME280;63140;56.306;43.984;2022-09-09T02:17:31;99706.19;;;7.16;78.14
74635;BME280;63140;56.306;43.984;2022-09-09T02:20:10;99703.44;;;7.12;78.21
74635;BME280;63140;56.306;43.984;2022-09-09T02:22:50;99714.09;;;7.16;78.46
74635;BME280;63140;56.306;43.984;2022-09-09T02:25:21;99717.06;;;7.14;78.25
74635;BME280;63140;56.306;43.984;2022-09-09T02:27:50;99721.88;;;7.09;78.10
74635;BME280;63140;56.306;43.984;2022-09-09T02:30:18;99716.59;;;7.09;78.03
74635;BME280;63140;56.306;43.984;2022-09-09T02:32:53;99722.31;;;7.11;77.97
74635;BME280;63140;56.306;43.984;2022-09-09T02:35:42;99728.81;;;7.17;78.14
74635;BME280;63140;56.306;43.984;2022-09-09T02:38:12;99719.38;;;7.16;78.14
74635;BME280;63140;56.306;43.984;2022-09-09T02:40:43;99734.44;;;7.15;78.08
74635;BME280;63140;56.306;43.984;2022-09-09T02:43:09;99738.56;;;7.13;77.80
74635;BME280;63140;56.306;43.984;2022-09-09T02:56:47;99751.06;;;7.16;77.52
74635;BME280;63140;56.306;43.984;2022-09-09T02:59:16;99745.06;;;7.19;77.50
74635;BME280;63140;56.306;43.984;2022-09-09T03:01:42;99756.47;;;7.23;77.59
74635;BME280;63140;56.306;43.984;2022-09-09T03:04:09;99761.69;;;7.20;77.13
74635;BME280;63140;56.306;43.984;2022-09-09T03:06:36;99759.38;;;7.18;77.35
74635;BME280;63140;56.306;43.984;2022-09-09T03:09:12;99759.81;;;7.20;77.44
74635;BME280;63140;56.306;43.984;2022-09-09T03:11:38;99760.22;;;7.22;77.13
74635;BME280;63140;56.306;43.984;2022-09-09T03:14:05;99768.13;;;7.22;77.36
74635;BME280;63140;56.306;43.984;2022-09-09T03:16:31;99767.78;;;7.24;77.22
74635;BME280;63140;56.306;43.984;2022-09-09T03:19:00;99767.03;;;7.23;77.14
74635;BME280;63140;56.306;43.984;2022-09-09T03:21:27;99770.78;;;7.22;76.73
74635;BME280;63140;56.306;43.984;2022-09-09T03:23:53;99779.00;;;7.17;76.47
74635;BME280;63140;56.306;43.984;2022-09-09T03:26:19;99781.63;;;7.17;76.60
74635;BME280;63140;56.306;43.984;2022-09-09T03:28:46;99777.47;;;7.16;76.54
74635;BME280;63140;56.306;43.984;2022-09-09T03:31:16;99781.97;;;7.15;76.50
74635;BME280;63140;56.306;43.984;2022-09-09T03:33:42;99788.81;;;7.16;76.43
74635;BME280;63140;56.306;43.984;2022-09-09T03:36:11;99798.19;;;7.14;76.28
74635;BME280;63140;56.306;43.984;2022-09-09T03:38:37;99797.38;;;7.10;76.83
74635;BME280;63140;56.306;43.984;2022-09-09T03:41:04;99787.84;;;7.05;76.69
74635;BME280;63140;56.306;43.984;2022-09-09T03:43:32;99789.94;;;6.96;76.49
74635;BME280;63140;56.306;43.984;2022-09-09T03:45:58;99793.72;;;6.95;76.86
74635;BME280;63140;56.306;43.984;2022-09-09T03:48:27;99801.69;;;6.99;77.04
74635;BME280;63140;56.306;43.984;2022-09-09T03:50:54;99802.09;;;7.01;76.49
74635;BME280;63140;56.306;43.984;2022-09-09T03:53:23;99803.34;;;7.07;76.42
74635;BME280;63140;56.306;43.984;2022-09-09T03:55:52;99796.94;;;7.08;76.28
74635;BME280;63140;56.306;43.984;2022-09-09T03:58:24;99806.06;;;7.10;76.02
74635;BME280;63140;56.306;43.984;2022-09-09T04:01:02;99802.22;;;7.08;76.25
74635;BME280;63140;56.306;43.984;2022-09-09T04:03:28;99802.78;;;6.98;75.79
74635;BME280;63140;56.306;43.984;2022-09-09T04:05:57;99812.53;;;6.93;76.18
74635;BME280;63140;56.306;43.984;2022-09-09T04:08:25;99817.81;;;6.93;76.35
74635;BME280;63140;56.306;43.984;2022-09-09T04:10:52;99812.13;;;6.91;76.23
74635;BME280;63140;56.306;43.984;2022-09-09T04:13:18;99813.22;;;6.90;76.40
74635;BME280;63140;56.306;43.984;2022-09-09T04:15:56;99821.28;;;6.98;76.39
74635;BME280;63140;56.306;43.984;2022-09-09T04:18:23;99818.63;;;6.98;75.83
74635;BME280;63140;56.306;43.984;2022-09-09T04:20:51;99834.72;;;7.12;76.09
74635;BME280;63140;56.306;43.984;2022-09-09T04:23:19;99833.75;;;7.20;75.85
74635;BME280;63140;56.306;43.984;2022-09-09T04:25:51;99834.34;;;7.33;76.20
74635;BME280;63140;56.306;43.984;2022-09-09T04:28:19;99838.66;;;7.41;75.14
74635;BME280;63140;56.306;43.984;2022-09-09T04:30:47;99838.28;;;7.43;75.06
74635;BME280;63140;56.306;43.984;2022-09-09T04:33:14;99843.38;;;7.51;74.70
74635;BME280;63140;56.306;43.984;2022-09-09T04:35:45;99842.34;;;7.59;74.98
74635;BME280;63140;56.306;43.984;2022-09-09T04:38:14;99854.94;;;7.66;74.40
74635;BME280;63140;56.306;43.984;2022-09-09T04:40:46;99854.38;;;7.57;73.75
74635;BME280;63140;56.306;43.984;2022-09-09T04:43:15;99847.97;;;7.58;74.07
74635;BME280;63140;56.306;43.984;2022-09-09T04:45:42;99852.16;;;7.59;74.35
74635;BME280;63140;56.306;43.984;2022-09-09T04:48:09;99847.69;;;7.63;74.17
74635;BME280;63140;56.306;43.984;2022-09-09T04:50:35;99847.75;;;7.67;74.07
74635;BME280;63140;56.306;43.984;2022-09-09T04:53:02;99853.38;;;7.65;73.91
74635;BME280;63140;56.306;43.984;2022-09-09T04:55:29;99858.28;;;7.63;73.67
74635;BME280;63140;56.306;43.984;2022-09-09T04:57:55;99862.03;;;7.62;73.40
74635;BME280;63140;56.306;43.984;2022-09-09T05:00:27;99857.56;;;7.66;73.66
74635;BME280;63140;56.306;43.984;2022-09-09T05:02:54;99859.16;;;7.71;73.68
74635;BME280;63140;56.306;43.984;2022-09-09T05:05:23;99865.78;;;7.61;73.05
74635;BME280;63140;56.306;43.984;2022-09-09T05:07:49;99867.31;;;7.62;73.76
74635;BME280;63140;56.306;43.984;2022-09-09T05:10:15;99866.59;;;7.65;73.68
74635;BME280;63140;56.306;43.984;2022-09-09T05:12:43;99863.31;;;7.72;73.71
74635;BME280;63140;56.306;43.984;2022-09-09T05:15:17;99873.59;;;7.77;73.31
74635;BME280;63140;56.306;43.984;2022-09-09T05:17:43;99869.13;;;7.81;73.02
74635;BME280;63140;56.306;43.984;2022-09-09T05:20:09;99872.97;;;7.83;72.82
74635;BME280;63140;56.306;43.984;2022-09-09T05:22:35;99868.47;;;7.87;73.32
74635;BME280;63140;56.306;43.984;2022-09-09T05:25:02;99884.47;;;7.95;72.84
74635;BME280;63140;56.306;43.984;2022-09-09T05:27:28;99872.31;;;7.90;72.12
74635;BME280;63140;56.306;43.984;2022-09-09T05:29:58;99877.22;;;7.92;72.21
74635;BME280;63140;56.306;43.984;2022-09-09T05:32:24;99878.34;;;7.91;72.06
74635;BME280;63140;56.306;43.984;2022-09-09T05:34:51;99878.00;;;7.92;72.12
74635;BME280;63140;56.306;43.984;2022-09-09T05:37:18;99884.56;;;8.02;72.14
74635;BME280;63140;56.306;43.984;2022-09-09T05:39:44;99886.94;;;8.10;72.38
74635;BME280;63140;56.306;43.984;2022-09-09T05:42:11;99886.28;;;8.17;72.11
74635;BME280;63140;56.306;43.984;2022-09-09T05:44:38;99886.41;;;8.24;72.13
74635;BME280;63140;56.306;43.984;2022-09-09T05:47:04;99896.97;;;8.24;71.67
74635;BME280;63140;56.306;43.984;2022-09-09T05:49:30;99884.59;;;8.28;71.49
74635;BME280;63140;56.306;43.984;2022-09-09T05:51:59;99892.63;;;8.35;71.76
74635;BME280;63140;56.306;43.984;2022-09-09T05:54:24;99898.44;;;8.45;70.97
74635;BME280;63140;56.306;43.984;2022-09-09T05:56:53;99893.25;;;8.52;70.64
74635;BME280;63140;56.306;43.984;2022-09-09T05:59:19;99903.53;;;8.57;69.98
74635;BME280;63140;56.306;43.984;2022-09-09T06:01:46;99902.00;;;8.56;69.09
74635;BME280;63140;56.306;43.984;2022-09-09T06:04:21;99905.47;;;8.60;69.54
74635;BME280;63140;56.306;43.984;2022-09-09T06:06:48;99916.44;;;8.62;69.34
74635;BME280;63140;56.306;43.984;2022-09-09T06:09:17;99909.53;;;8.54;68.03
74635;BME280;63140;56.306;43.984;2022-09-09T06:11:43;99909.53;;;8.54;68.07
74635;BME280;63140;56.306;43.984;2022-09-09T06:14:10;99914.22;;;8.64;68.64
74635;BME280;63140;56.306;43.984;2022-09-09T06:16:38;99918.16;;;8.77;68.12
74635;BME280;63140;56.306;43.984;2022-09-09T06:19:06;99910.31;;;8.84;68.11
74635;BME280;63140;56.306;43.984;2022-09-09T06:21:35;99907.75;;;8.92;66.30
74635;BME280;63140;56.306;43.984;2022-09-09T06:24:07;99914.03;;;9.10;67.20
74635;BME280;63140;56.306;43.984;2022-09-09T06:26:38;99913.47;;;9.27;67.61
74635;BME280;63140;56.306;43.984;2022-09-09T06:29:09;99922.34;;;9.46;67.24
74635;BME280;63140;56.306;43.984;2022-09-09T06:31:36;99926.69;;;9.65;66.97
74635;BME280;63140;56.306;43.984;2022-09-09T06:34:19;99931.25;;;9.64;65.07
74635;BME280;63140;56.306;43.984;2022-09-09T06:36:49;99939.47;;;9.52;65.39
74635;BME280;63140;56.306;43.984;2022-09-09T06:39:16;99932.31;;;9.56;65.44
74635;BME280;63140;56.306;43.984;2022-09-09T06:41:42;99929.84;;;9.77;65.61
74635;BME280;63140;56.306;43.984;2022-09-09T06:44:19;99944.88;;;10.07;64.84
74635;BME280;63140;56.306;43.984;2022-09-09T06:46:45;99934.88;;;10.34;63.99
74635;BME280;63140;56.306;43.984;2022-09-09T06:49:15;99931.09;;;10.39;64.29
74635;BME280;63140;56.306;43.984;2022-09-09T06:51:41;99942.47;;;10.36;62.23
74635;BME280;63140;56.306;43.984;2022-09-09T06:54:12;99943.25;;;10.36;62.83
74635;BME280;63140;56.306;43.984;2022-09-09T06:56:42;99944.25;;;10.24;62.53
74635;BME280;63140;56.306;43.984;2022-09-09T06:59:19;99949.19;;;10.22;61.55
74635;BME280;63140;56.306;43.984;2022-09-09T07:01:46;99952.16;;;10.17;61.47
74635;BME280;63140;56.306;43.984;2022-09-09T07:04:14;99956.09;;;10.31;61.54
74635;BME280;63140;56.306;43.984;2022-09-09T07:06:45;99951.22;;;10.40;61.22
74635;BME280;63140;56.306;43.984;2022-09-09T07:09:23;99955.50;;;10.55;60.31
74635;BME280;63140;56.306;43.984;2022-09-09T07:11:51;99952.13;;;10.65;60.83
74635;BME280;63140;56.306;43.984;2022-09-09T07:14:22;99948.78;;;10.75;60.89
74635;BME280;63140;56.306;43.984;2022-09-09T07:16:54;99956.34;;;10.73;60.86
74635;BME280;63140;56.306;43.984;2022-09-09T07:19:23;99950.66;;;10.68;60.53
74635;BME280;63140;56.306;43.984;2022-09-09T07:21:52;99956.31;;;10.66;60.66
74635;BME280;63140;56.306;43.984;2022-09-09T07:24:20;99961.59;;;10.59;60.25
74635;BME280;63140;56.306;43.984;2022-09-09T07:26:46;99969.97;;;10.61;60.46
74635;BME280;63140;56.306;43.984;2022-09-09T07:29:12;99960.03;;;10.51;59.36
74635;BME280;63140;56.306;43.984;2022-09-09T07:31:41;99958.56;;;10.57;59.37
74635;BME280;63140;56.306;43.984;2022-09-09T07:34:11;99956.72;;;10.68;59.34
74635;BME280;63140;56.306;43.984;2022-09-09T07:36:39;99960.59;;;10.82;58.30
74635;BME280;63140;56.306;43.984;2022-09-09T07:39:09;99961.78;;;10.95;58.49
74635;BME280;63140;56.306;43.984;2022-09-09T07:41:45;99964.09;;;11.00;58.13
74635;BME280;63140;56.306;43.984;2022-09-09T07:44:18;99968.28;;;11.08;57.78
74635;BME280;63140;56.306;43.984;2022-09-09T07:46:49;99964.16;;;11.14;57.96
74635;BME280;63140;56.306;43.984;2022-09-09T07:49:19;99971.75;;;11.19;57.76
74635;BME280;63140;56.306;43.984;2022-09-09T07:51:47;99972.56;;;11.23;57.31
74635;BME280;63140;56.306;43.984;2022-09-09T07:54:16;99974.06;;;11.25;57.19
74635;BME280;63140;56.306;43.984;2022-09-09T07:56:48;99974.78;;;11.14;56.85
74635;BME280;63140;56.306;43.984;2022-09-09T07:59:15;99978.91;;;11.08;57.62
74635;BME280;63140;56.306;43.984;2022-09-09T08:01:45;99984.59;;;11.03;57.45
74635;BME280;63140;56.306;43.984;2022-09-09T08:04:17;99987.28;;;11.03;57.46
74635;BME280;63140;56.306;43.984;2022-09-09T08:06:47;99993.00;;;11.12;58.04
74635;BME280;63140;56.306;43.984;2022-09-09T08:09:15;99993.84;;;11.27;57.96
74635;BME280;63140;56.306;43.984;2022-09-09T08:11:42;99994.63;;;11.42;57.43
74635;BME280;63140;56.306;43.984;2022-09-09T08:14:09;99993.16;;;11.52;57.05
74635;BME280;63140;56.306;43.984;2022-09-09T08:16:43;100000.75;;;11.50;56.40
74635;BME280;63140;56.306;43.984;2022-09-09T08:19:11;100000.31;;;11.44;56.02
74635;BME280;63140;56.306;43.984;2022-09-09T08:21:39;99998.44;;;11.41;56.76
74635;BME280;63140;56.306;43.984;2022-09-09T08:24:10;99999.22;;;11.45;57.03
74635;BME280;63140;56.306;43.984;2022-09-09T08:26:42;99999.25;;;11.59;56.76
74635;BME280;63140;56.306;43.984;2022-09-09T08:29:11;100001.56;;;11.79;56.06
74635;BME280;63140;56.306;43.984;2022-09-09T08:31:59;99998.59;;;12.05;56.03
74635;BME280;63140;56.306;43.984;2022-09-09T08:34:27;100007.00;;;12.22;55.09
74635;BME280;63140;56.306;43.984;2022-09-09T08:36:55;100000.13;;;12.28;53.78
74635;BME280;63140;56.306;43.984;2022-09-09T08:39:28;99997.09;;;12.26;54.44
74635;BME280;63140;56.306;43.984;2022-09-09T08:58:47;99998.59;;;12.55;52.61
74635;BME280;63140;56.306;43.984;2022-09-09T09:12:20;100025.22;;;12.27;52.30
74635;BME280;63140;56.306;43.984;2022-09-09T09:14:49;100013.81;;;12.23;52.76
74635;BME280;63140;56.306;43.984;2022-09-09T09:17:17;100019.16;;;12.30;51.85
74635;BME280;63140;56.306;43.984;2022-09-09T09:19:45;100014.56;;;12.52;52.09
74635;BME280;63140;56.306;43.984;2022-09-09T09:22:24;100017.59;;;12.79;51.91
74635;BME280;63140;56.306;43.984;2022-09-09T09:28:00;100016.72;;;13.18;50.66
74635;BME280;63140;56.306;43.984;2022-09-09T09:30:41;100021.31;;;13.13;50.65
74635;BME280;63140;56.306;43.984;2022-09-09T09:36:05;100026.72;;;12.85;50.82
74635;BME280;63140;56.306;43.984;2022-09-09T09:38:36;100022.16;;;12.85;51.17
74635;BME280;63140;56.306;43.984;2022-09-09T09:41:03;100022.16;;;12.89;51.59
74635;BME280;63140;56.306;43.984;2022-09-09T09:43:32;100022.91;;;12.86;51.35
74635;BME280;63140;56.306;43.984;2022-09-09T09:46:19;100019.88;;;12.70;51.36
74635;BME280;63140;56.306;43.984;2022-09-09T09:48:59;100022.94;;;12.57;52.07
74635;BME280;63140;56.306;43.984;2022-09-09T09:51:28;100022.22;;;12.39;52.29
74635;BME280;63140;56.306;43.984;2022-09-09T09:54:05;100031.72;;;12.18;52.76
74635;BME280;63140;56.306;43.984;2022-09-09T09:56:33;100022.97;;;12.22;53.29
74635;BME280;63140;56.306;43.984;2022-09-09T09:59:01;100027.91;;;12.45;52.83
74635;BME280;63140;56.306;43.984;2022-09-09T10:01:33;100025.16;;;12.98;52.37
74635;BME280;63140;56.306;43.984;2022-09-09T10:06:44;100024.56;;;14.23;50.27
74635;BME280;63140;56.306;43.984;2022-09-09T10:09:29;100030.34;;;14.15;48.36
74635;BME280;63140;56.306;43.984;2022-09-09T10:35:13;100038.19;;;19.46;40.53
74635;BME280;63140;56.306;43.984;2022-09-09T10:40:33;100054.34;;;22.76;35.42
74635;BME280;63140;56.306;43.984;2022-09-09T10:45:49;100037.84;;;26.79;30.58
74635;BME280;63140;56.306;43.984;2022-09-09T10:51:31;100048.03;;;29.32;28.30
74635;BME280;63140;56.306;43.984;2022-09-09T10:56:38;100042.53;;;24.10;34.25
74635;BME280;63140;56.306;43.984;2022-09-09T10:59:18;100047.00;;;21.99;36.41
74635;BME280;63140;56.306;43.984;2022-09-09T11:01:53;100048.66;;;19.83;38.77
74635;BME280;63140;56.306;43.984;2022-09-09T11:04:41;100047.22;;;17.87;42.25
74635;BME280;63140;56.306;43.984;2022-09-09T11:07:13;100043.81;;;17.47;43.05
74635;BME280;63140;56.306;43.984;2022-09-09T11:09:49;100042.38;;;17.02;44.12
74635;BME280;63140;56.306;43.984;2022-09-09T11:12:19;100050.53;;;20.46;40.64
74635;BME280;63140;56.306;43.984;2022-09-09T11:14:49;100045.44;;;23.64;35.40
74635;BME280;63140;56.306;43.984;2022-09-09T11:17:22;100043.19;;;25.71;34.00
74635;BME280;63140;56.306;43.984;2022-09-09T11:19:50;100046.41;;;25.40;32.73
74635;BME280;63140;56.306;43.984;2022-09-09T11:22:38;100045.63;;;26.92;31.78
74635;BME280;63140;56.306;43.984;2022-09-09T11:25:15;100053.94;;;28.09;30.44
74635;BME280;63140;56.306;43.984;2022-09-09T11:27:55;100052.25;;;29.39;29.10
74635;BME280;63140;56.306;43.984;2022-09-09T11:33:55;100044.53;;;29.32;28.52
74635;BME280;63140;56.306;43.984;2022-09-09T11:44:38;100036.28;;;28.64;30.54
74635;BME280;63140;56.306;43.984;2022-09-09T11:47:28;100033.84;;;29.11;28.78
74635;BME280;63140;56.306;43.984;2022-09-09T11:56:07;100030.50;;;23.35;34.09
74635;BME280;63140;56.306;43.984;2022-09-09T11:58:39;100040.38;;;21.29;36.29
74635;BME280;63140;56.306;43.984;2022-09-09T12:01:26;100042.56;;;19.27;39.70
74635;BME280;63140;56.306;43.984;2022-09-09T12:07:04;100056.25;;;16.54;47.36
74635;BME280;63140;56.306;43.984;2022-09-09T12:12:35;100057.59;;;15.26;52.04
74635;BME280;63140;56.306;43.984;2022-09-09T12:17:43;100051.81;;;14.49;53.41
74635;BME280;63140;56.306;43.984;2022-09-09T12:20:15;100060.47;;;14.19;54.35
74635;BME280;63140;56.306;43.984;2022-09-09T12:28:06;100057.56;;;18.05;49.97
74635;BME280;63140;56.306;43.984;2022-09-09T12:33:17;100056.09;;;20.04;42.58
74635;BME280;63140;56.306;43.984;2022-09-09T12:35:45;100049.00;;;18.26;44.26
74635;BME280;63140;56.306;43.984;2022-09-09T12:38:29;100047.59;;;17.69;45.74
74635;BME280;63140;56.306;43.984;2022-09-09T12:40:58;100053.41;;;17.28;46.33
74635;BME280;63140;56.306;43.984;2022-09-09T12:43:26;100052.28;;;16.62;47.78
74635;BME280;63140;56.306;43.984;2022-09-09T12:46:00;100060.22;;;16.22;48.95
74635;BME280;63140;56.306;43.984;2022-09-09T12:48:40;100059.25;;;16.09;48.68
74635;BME280;63140;56.306;43.984;2022-09-09T12:51:20;100059.00;;;15.72;48.74
74635;BME280;63140;56.306;43.984;2022-09-09T12:53:51;100056.00;;;15.67;49.78
74635;BME280;63140;56.306;43.984;2022-09-09T12:56:35;100046.88;;;15.61;49.35
74635;BME280;63140;56.306;43.984;2022-09-09T12:59:01;100053.78;;;15.27;49.65
74635;BME280;63140;56.306;43.984;2022-09-09T13:01:55;100052.28;;;14.89;51.06
74635;BME280;63140;56.306;43.984;2022-09-09T13:04:21;100052.97;;;14.96;51.60
74635;BME280;63140;56.306;43.984;2022-09-09T13:06:48;100047.81;;;15.47;50.48
74635;BME280;63140;56.306;43.984;2022-09-09T13:09:15;100051.88;;;15.89;49.58
74635;BME280;63140;56.306;43.984;2022-09-09T13:11:45;100050.78;;;15.87;49.57
74635;BME280;63140;56.306;43.984;2022-09-09T13:14:28;100045.91;;;15.78;48.00
74635;BME280;63140;56.306;43.984;2022-09-09T13:16:57;100049.84;;;15.70;47.60
74635;BME280;63140;56.306;43.984;2022-09-09T13:19:24;100051.81;;;15.66;48.11
74635;BME280;63140;56.306;43.984;2022-09-09T13:21:54;100038.88;;;16.62;47.24
74635;BME280;63140;56.306;43.984;2022-09-09T13:24:32;100038.31;;;18.39;44.36
74635;BME280;63140;56.306;43.984;2022-09-09T13:27:00;100042.97;;;19.68;41.81
74635;BME280;63140;56.306;43.984;2022-09-09T13:29:28;100055.81;;;21.50;38.65
74635;BME280;63140;56.306;43.984;2022-09-09T13:31:54;100051.47;;;22.52;37.03
74635;BME280;63140;56.306;43.984;2022-09-09T13:34:31;100055.72;;;23.50;35.20
74635;BME280;63140;56.306;43.984;2022-09-09T13:37:23;100054.28;;;23.31;35.36
74635;BME280;63140;56.306;43.984;2022-09-09T13:39:52;100049.50;;;23.17;35.58
74635;BME280;63140;56.306;43.984;2022-09-09T13:42:28;100048.00;;;23.67;34.83
74635;BME280;63140;56.306;43.984;2022-09-09T13:44:56;100045.22;;;23.43;36.12
74635;BME280;63140;56.306;43.984;2022-09-09T13:47:30;100038.38;;;22.32;36.67
74635;BME280;63140;56.306;43.984;2022-09-09T13:49:58;100053.09;;;20.62;39.47
74635;BME280;63140;56.306;43.984;2022-09-09T13:52:35;100050.94;;;19.97;41.90
74635;BME280;63140;56.306;43.984;2022-09-09T13:55:01;100042.72;;;19.07;43.47
74635;BME280;63140;56.306;43.984;2022-09-09T13:57:28;100042.91;;;19.42;44.94
74635;BME280;63140;56.306;43.984;2022-09-09T13:59:54;100050.75;;;20.39;42.87
74635;BME280;63140;56.306;43.984;2022-09-09T14:02:23;100050.69;;;20.30;42.06
74635;BME280;63140;56.306;43.984;2022-09-09T14:04:49;100048.03;;;19.78;42.03
74635;BME280;63140;56.306;43.984;2022-09-09T14:07:20;100048.34;;;19.13;42.74
74635;BME280;63140;56.306;43.984;2022-09-09T14:09:46;100049.63;;;17.81;43.99
74635;BME280;63140;56.306;43.984;2022-09-09T14:12:15;100047.88;;;16.75;45.96
74635;BME280;63140;56.306;43.984;2022-09-09T14:14:42;100043.13;;;15.85;47.54
74635;BME280;63140;56.306;43.984;2022-09-09T14:17:08;100053.50;;;15.18;48.95
74635;BME280;63140;56.306;43.984;2022-09-09T14:19:35;100051.63;;;14.74;50.09
74635;BME280;63140;56.306;43.984;2022-09-09T14:22:03;100050.72;;;14.91;50.74
74635;BME280;63140;56.306;43.984;2022-09-09T14:24:29;100052.19;;;15.30;49.52
74635;BME280;63140;56.306;43.984;2022-09-09T14:26:55;100060.69;;;14.87;49.74
74635;BME280;63140;56.306;43.984;2022-09-09T14:29:21;100051.88;;;14.45;50.36
74635;BME280;63140;56.306;43.984;2022-09-09T14:31:47;100059.78;;;14.07;51.40
74635;BME280;63140;56.306;43.984;2022-09-09T14:34:13;100054.97;;;13.81;51.65
74635;BME280;63140;56.306;43.984;2022-09-09T14:36:45;100059.25;;;13.60;52.09
74635;BME280;63140;56.306;43.984;2022-09-09T14:39:14;100064.69;;;13.39;52.90
74635;BME280;63140;56.306;43.984;2022-09-09T14:41:40;100053.34;;;13.06;54.11
74635;BME280;63140;56.306;43.984;2022-09-09T14:44:06;100051.47;;;12.89;54.23
74635;BME280;63140;56.306;43.984;2022-09-09T14:46:32;100059.84;;;12.73;54.53
74635;BME280;63140;56.306;43.984;2022-09-09T14:48:58;100059.09;;;12.58;55.43
74635;BME280;63140;56.306;43.984;2022-09-09T14:51:25;100059.50;;;12.46;55.33
74635;BME280;63140;56.306;43.984;2022-09-09T14:53:57;100061.75;;;12.37;55.73
74635;BME280;63140;56.306;43.984;2022-09-09T14:56:26;100060.25;;;12.29;56.28
74635;BME280;63140;56.306;43.984;2022-09-09T14:58:54;100072.78;;;12.21;56.11
74635;BME280;63140;56.306;43.984;2022-09-09T15:01:21;100062.50;;;12.12;56.45
74635;BME280;63140;56.306;43.984;2022-09-09T15:03:52;100068.53;;;11.95;56.90
74635;BME280;63140;56.306;43.984;2022-09-09T15:06:20;100073.44;;;11.86;56.77
74635;BME280;63140;56.306;43.984;2022-09-09T15:08:46;100079.09;;;11.74;57.20
74635;BME280;63140;56.306;43.984;2022-09-09T15:11:13;100081.72;;;11.59;57.84
74635;BME280;63140;56.306;43.984;2022-09-09T15:13:40;100072.53;;;11.50;57.58
74635;BME280;63140;56.306;43.984;2022-09-09T15:16:15;100068.31;;;11.38;57.91
74635;BME280;63140;56.306;43.984;2022-09-09T15:18:41;100064.44;;;11.25;58.49
74635;BME280;63140;56.306;43.984;2022-09-09T15:21:10;100078.03;;;11.12;58.55
74635;BME280;63140;56.306;43.984;2022-09-09T15:23:36;100071.16;;;11.04;58.92
74635;BME280;63140;56.306;43.984;2022-09-09T15:26:02;100077.22;;;11.01;59.42
74635;BME280;63140;56.306;43.984;2022-09-09T15:28:31;100082.91;;;10.96;59.18
74635;BME280;63140;56.306;43.984;2022-09-09T15:30:58;100080.25;;;10.96;59.32
74635;BME280;63140;56.306;43.984;2022-09-09T15:33:25;100089.72;;;10.97;59.59